| time (UTC) | temp C | wind direction | speed KPH | gust KPH | rain 1hr cm | rain 24hr cm | rain mn cm | humidity % | barometer mb |
| 20260906083300 | 24 | 200 | 12.9 | 12.9 | 0.00 | 0.00 | 0.00 | 73 | 1017.0 |
| 20260906082758 | 24 | 200 | 12.9 | 12.9 | 0.00 | 0.00 | 0.00 | 73 | 1017.0 |
| 20260906082256 | 24 | 200 | 12.9 | 12.9 | 0.00 | 0.00 | 0.00 | 73 | 1017.0 |
| 20260906081754 | 25 | 200 | 12.9 | 12.9 | 0.00 | 0.00 | 0.00 | 95 | 1017.0 |
| 20260906081252 | 25 | 200 | 12.9 | 12.9 | 0.00 | 0.00 | 0.00 | 95 | 1017.0 |
| 20260906080750 | 25 | 220 | 12.9 | 12.9 | 0.00 | 0.00 | 0.00 | 94 | 1017.0 |
| 20260906080248 | 25 | 220 | 12.9 | 12.9 | 0.00 | 0.00 | 0.00 | 94 | 1017.0 |
| 20260906075747 | 25 | 220 | 12.9 | 12.9 | 0.00 | 0.00 | 0.00 | 94 | 1017.0 |
| 20260906075245 | 25 | 220 | 12.9 | 12.9 | 0.00 | 0.00 | 0.00 | 94 | 1017.0 |
| 20260906074742 | 25 | 220 | 12.9 | 12.9 | 0.00 | 0.00 | 0.00 | 94 | 1017.0 |
| 20260906074239 | 25 | 220 | 12.9 | 12.9 | 0.00 | 0.00 | 0.00 | 94 | 1017.0 |
| 20260906073738 | 25 | 210 | 12.9 | 12.9 | 0.00 | 0.00 | 0.00 | 95 | 1017.0 |
| 20260906073237 | 25 | 210 | 12.9 | 12.9 | 0.00 | 0.00 | 0.00 | 95 | 1017.0 |
| 20260906072735 | 24 | 210 | 12.9 | 12.9 | 0.00 | 0.00 | 0.00 | 73 | 1017.0 |
| 20260906072233 | 24 | 210 | 12.9 | 12.9 | 0.00 | 0.00 | 0.00 | 73 | 1017.0 |
| 20260906071732 | 24 | 210 | 12.9 | 12.9 | 0.00 | 0.00 | 0.00 | 73 | 1017.0 |
| 20260906071230 | 24 | 210 | 12.9 | 12.9 | 0.00 | 0.00 | 0.00 | 73 | 1017.0 |
| 20260906070727 | 24 | 220 | 8.0 | 8.0 | 0.00 | 0.00 | 0.00 | 69 | 1017.0 |
| 20260906070226 | 24 | 220 | 8.0 | 8.0 | 0.00 | 0.00 | 0.00 | 69 | 1017.0 |
| 20260906065724 | 24 | 220 | 8.0 | 8.0 | 0.00 | 0.00 | 0.00 | 69 | 1017.0 |
| 20260906065221 | 24 | 220 | 8.0 | 8.0 | 0.00 | 0.00 | 0.00 | 69 | 1017.0 |
| 20260906064720 | 24 | 220 | 8.0 | 8.0 | 0.00 | 0.00 | 0.00 | 69 | 1017.0 |
| 20260906064218 | 24 | 220 | 8.0 | 8.0 | 0.00 | 0.00 | 0.00 | 69 | 1017.0 |
| 20260906063718 | 23 | 200 | 6.4 | 6.4 | 0.00 | 0.00 | 0.00 | 73 | 1016.0 |
| 20260906063215 | 23 | 200 | 6.4 | 6.4 | 0.00 | 0.00 | 0.00 | 73 | 1016.0 |
| 20260906062713 | 23 | 200 | 6.4 | 6.4 | 0.00 | 0.00 | 0.00 | 73 | 1016.0 |
| 20260906062211 | 23 | 200 | 6.4 | 6.4 | 0.00 | 0.00 | 0.00 | 73 | 1016.0 |
| 20260906061709 | 23 | 200 | 6.4 | 6.4 | 0.00 | 0.00 | 0.00 | 73 | 1016.0 |
| 20260906061208 | 23 | 200 | 6.4 | 6.4 | 0.00 | 0.00 | 0.00 | 73 | 1016.0 |
| 20260906060706 | 23 | 0 | 3.2 | 3.2 | 0.00 | 0.00 | 0.00 | 69 | 1017.0 |
| 20260906060204 | 23 | 0 | 3.2 | 3.2 | 0.00 | 0.00 | 0.00 | 69 | 1017.0 |
| 20260906055703 | 23 | 0 | 3.2 | 3.2 | 0.00 | 0.00 | 0.00 | 69 | 1017.0 |
| 20260906055201 | 23 | 0 | 3.2 | 3.2 | 0.00 | 0.00 | 0.00 | 69 | 1017.0 |
| 20260906054700 | 23 | 0 | 3.2 | 3.2 | 0.00 | 0.00 | 0.00 | 69 | 1017.0 |
| 20260906054159 | 23 | 0 | 3.2 | 3.2 | 0.00 | 0.00 | 0.00 | 94 | 1017.0 |
| 20260906053657 | 23 | 0 | 3.2 | 3.2 | 0.00 | 0.00 | 0.00 | 94 | 1017.0 |
| 20260906053155 | 22 | 0 | 0.0 | 0.0 | 0.00 | 0.00 | 0.00 | 69 | 1016.0 |
| 20260906052653 | 22 | 0 | 0.0 | 0.0 | 0.00 | 0.00 | 0.00 | 69 | 1016.0 |
| 20260906052151 | 22 | 0 | 0.0 | 0.0 | 0.00 | 0.00 | 0.00 | 72 | 1016.0 |
| 20260906051647 | 22 | 0 | 0.0 | 0.0 | 0.00 | 0.00 | 0.00 | 72 | 1016.0 |
| 20260906051145 | 21 | 0 | 1.6 | 1.6 | 0.00 | 0.00 | 0.00 | 83 | 1016.0 |
| 20260906050644 | 21 | 0 | 1.6 | 1.6 | 0.00 | 0.00 | 0.00 | 83 | 1016.0 |
| 20260906050142 | 20 | 0 | 1.6 | 1.6 | 0.00 | 0.00 | 0.00 | 94 | 1016.0 |
| 20260906045641 | 20 | 0 | 1.6 | 1.6 | 0.00 | 0.00 | 0.00 | 94 | 1016.0 |
| 20260906045139 | 20 | 0 | 1.6 | 1.6 | 0.00 | 0.00 | 0.00 | 94 | 1016.0 |
| 20260906044637 | 20 | 0 | 1.6 | 1.6 | 0.00 | 0.00 | 0.00 | 94 | 1016.0 |
| 20260906044135 | 20 | 330 | 3.2 | 3.2 | 0.00 | 0.00 | 0.00 | 95 | 1016.0 |
| 20260906043632 | 20 | 330 | 3.2 | 3.2 | 0.00 | 0.00 | 0.00 | 95 | 1016.0 |
| 20260906043131 | 20 | 330 | 3.2 | 3.2 | 0.00 | 0.00 | 0.00 | 95 | 1016.0 |
| 20260906042628 | 20 | 330 | 3.2 | 3.2 | 0.00 | 0.00 | 0.00 | 95 | 1016.0 |
| 20260906042127 | 20 | 330 | 3.2 | 3.2 | 0.00 | 0.00 | 0.00 | 95 | 1016.0 |
| 20260906041625 | 20 | 330 | 3.2 | 3.2 | 0.00 | 0.00 | 0.00 | 95 | 1016.0 |
| 20260906041122 | 20 | 0 | 0.0 | 0.0 | 0.00 | 0.00 | 0.00 | 95 | 1016.0 |
| 20260906040621 | 20 | 0 | 0.0 | 0.0 | 0.00 | 0.00 | 0.00 | 95 | 1016.0 |
| 20260906040120 | 20 | 0 | 0.0 | 0.0 | 0.00 | 0.00 | 0.00 | 95 | 1016.0 |
| 20260906035618 | 20 | 0 | 0.0 | 0.0 | 0.00 | 0.00 | 0.00 | 95 | 1016.0 |
| 20260906035116 | 20 | 0 | 0.0 | 0.0 | 0.00 | 0.00 | 0.00 | 95 | 1016.0 |
| 20260906034614 | 20 | 0 | 0.0 | 0.0 | 0.00 | 0.00 | 0.00 | 95 | 1016.0 |
| 20260906034112 | 20 | 0 | 0.0 | 0.0 | 0.00 | 0.00 | 0.00 | 95 | 1016.0 |
| 20260906033611 | 20 | 350 | 1.6 | 1.6 | 0.00 | 0.00 | 0.00 | 95 | 1016.0 |
| 20260906033109 | 20 | 350 | 1.6 | 1.6 | 0.00 | 0.00 | 0.00 | 95 | 1016.0 |
| 20260906032608 | 19 | 350 | 1.6 | 1.6 | 0.00 | 0.00 | 0.00 | 95 | 1015.0 |
| 20260906032104 | 19 | 350 | 1.6 | 1.6 | 0.00 | 0.00 | 0.00 | 95 | 1015.0 |
| 20260906031602 | 19 | 350 | 1.6 | 1.6 | 0.00 | 0.00 | 0.00 | 95 | 1015.0 |
| 20260906031059 | 19 | 350 | 1.6 | 1.6 | 0.00 | 0.00 | 0.00 | 95 | 1015.0 |
| 20260906030558 | 19 | 0 | 0.0 | 0.0 | 0.00 | 0.00 | 0.00 | 95 | 1016.0 |
| 20260906030057 | 19 | 0 | 0.0 | 0.0 | 0.00 | 0.00 | 0.00 | 95 | 1016.0 |
| 20260906025555 | 20 | 0 | 0.0 | 0.0 | 0.00 | 0.00 | 0.00 | 95 | 1016.0 |
| 20260906025053 | 20 | 0 | 0.0 | 0.0 | 0.00 | 0.00 | 0.00 | 95 | 1016.0 |
| 20260906024552 | 20 | 300 | 3.2 | 3.2 | 0.00 | 0.00 | 0.00 | 95 | 1016.0 |
| 20260906024051 | 20 | 300 | 3.2 | 3.2 | 0.00 | 0.00 | 0.00 | 95 | 1016.0 |
| 20260906023549 | 20 | 300 | 3.2 | 3.2 | 0.00 | 0.00 | 0.00 | 95 | 1016.0 |
| 20260906023047 | 20 | 300 | 3.2 | 3.2 | 0.00 | 0.00 | 0.00 | 95 | 1015.0 |
| 20260906022543 | 20 | 300 | 3.2 | 3.2 | 0.00 | 0.00 | 0.00 | 95 | 1015.0 |
| 20260906022038 | 20 | 300 | 3.2 | 3.2 | 0.00 | 0.00 | 0.00 | 95 | 1015.0 |
| 20260906021537 | 20 | 300 | 3.2 | 3.2 | 0.00 | 0.00 | 0.00 | 95 | 1015.0 |
| 20260906021034 | 20 | 300 | 3.2 | 3.2 | 0.00 | 0.00 | 0.00 | 95 | 1015.0 |
| 20260906020532 | 20 | 330 | 6.4 | 6.4 | 0.00 | 0.00 | 0.00 | 96 | 1015.0 |
| 20260906020030 | 20 | 330 | 6.4 | 6.4 | 0.00 | 0.00 | 0.00 | 96 | 1015.0 |
| 20260906015527 | 20 | 330 | 6.4 | 6.4 | 0.00 | 0.00 | 0.00 | 96 | 1015.0 |
| 20260906015025 | 20 | 330 | 6.4 | 6.4 | 0.00 | 0.00 | 0.00 | 96 | 1015.0 |
| 20260906014523 | 20 | 330 | 6.4 | 6.4 | 0.00 | 0.00 | 0.00 | 96 | 1015.0 |
| 20260906014021 | 20 | 0 | 0.0 | 0.0 | 0.00 | 0.00 | 0.00 | 95 | 1016.0 |
| 20260906013519 | 20 | 0 | 0.0 | 0.0 | 0.00 | 0.00 | 0.00 | 95 | 1016.0 |
| 20260906013016 | 20 | 0 | 0.0 | 0.0 | 0.00 | 0.00 | 0.00 | 95 | 1015.0 |
| 20260906012514 | 20 | 0 | 0.0 | 0.0 | 0.00 | 0.00 | 0.00 | 95 | 1015.0 |
| 20260906012011 | 20 | 0 | 0.0 | 0.0 | 0.00 | 0.00 | 0.00 | 95 | 1015.0 |
| 20260906011510 | 20 | 0 | 0.0 | 0.0 | 0.00 | 0.00 | 0.00 | 95 | 1015.0 |
| 20260906011006 | 20 | 360 | 3.2 | 3.2 | 0.00 | 0.00 | 0.00 | 95 | 1016.0 |
| 20260906010504 | 20 | 360 | 3.2 | 3.2 | 0.00 | 0.00 | 0.00 | 95 | 1016.0 |
| 20260906010000 | 20 | 360 | 3.2 | 3.2 | 0.00 | 0.00 | 0.00 | 95 | 1016.0 |
| 20260906005457 | 20 | 360 | 3.2 | 3.2 | 0.00 | 0.00 | 0.00 | 95 | 1016.0 |
| 20260906004956 | 20 | 360 | 3.2 | 3.2 | 0.00 | 0.00 | 0.00 | 95 | 1016.0 |
| 20260906004454 | 20 | 360 | 3.2 | 3.2 | 0.00 | 0.00 | 0.00 | 95 | 1016.0 |
| 20260906003952 | 21 | 0 | 3.2 | 3.2 | 0.00 | 0.00 | 0.00 | 93 | 1016.0 |
| 20260906003451 | 21 | 0 | 3.2 | 3.2 | 0.00 | 0.00 | 0.00 | 93 | 1016.0 |
| 20260906002949 | 21 | 0 | 3.2 | 3.2 | 0.00 | 0.00 | 0.00 | 93 | 1015.0 |
| 20260906002447 | 21 | 0 | 3.2 | 3.2 | 0.00 | 0.00 | 0.00 | 93 | 1015.0 |
| 20260906001945 | 21 | 0 | 3.2 | 3.2 | 0.00 | 0.00 | 0.00 | 93 | 1015.0 |
| 20260906001444 | 21 | 0 | 3.2 | 3.2 | 0.00 | 0.00 | 0.00 | 93 | 1015.0 |
| 20260906000942 | 21 | 0 | 3.2 | 3.2 | 0.00 | 0.00 | 0.00 | 94 | 1016.0 |
| 20260906000441 | 21 | 0 | 3.2 | 3.2 | 0.00 | 0.00 | 0.00 | 94 | 1016.0 |
| 20260905235940 | 21 | 0 | 3.2 | 3.2 | 0.00 | 0.00 | 0.00 | 94 | 1016.0 |
| 20260905235438 | 21 | 0 | 3.2 | 3.2 | 0.00 | 0.00 | 0.00 | 94 | 1016.0 |
| 20260905234934 | 21 | 0 | 3.2 | 3.2 | 0.00 | 0.00 | 0.00 | 94 | 1016.0 |
| 20260905234433 | 21 | 0 | 3.2 | 3.2 | 0.00 | 0.00 | 0.00 | 94 | 1016.0 |
| 20260905233926 | 21 | 0 | 3.2 | 3.2 | 0.00 | 0.00 | 0.00 | 94 | 1016.0 |
| 20260905233425 | 21 | 0 | 1.6 | 1.6 | 0.00 | 0.00 | 0.00 | 93 | 1016.0 |
| 20260905232923 | 21 | 0 | 1.6 | 1.6 | 0.00 | 0.00 | 0.00 | 93 | 1016.0 |
| 20260905232422 | 21 | 0 | 1.6 | 1.6 | 0.00 | 0.00 | 0.00 | 93 | 1016.0 |
| 20260905231919 | 21 | 0 | 1.6 | 1.6 | 0.00 | 0.00 | 0.00 | 93 | 1016.0 |
| 20260905231417 | 21 | 0 | 1.6 | 1.6 | 0.00 | 0.00 | 0.00 | 93 | 1016.0 |
| 20260905230916 | 21 | 0 | 1.6 | 1.6 | 0.00 | 0.00 | 0.00 | 93 | 1016.0 |
| 20260905230414 | 21 | 50 | 6.4 | 6.4 | 0.00 | 0.00 | 0.00 | 93 | 1016.0 |
| 20260905225913 | 21 | 50 | 6.4 | 6.4 | 0.00 | 0.00 | 0.00 | 93 | 1016.0 |
| 20260905225411 | 21 | 50 | 6.4 | 6.4 | 0.00 | 0.00 | 0.00 | 93 | 1016.0 |
| 20260905224910 | 21 | 50 | 6.4 | 6.4 | 0.00 | 0.00 | 0.00 | 93 | 1016.0 |
| 20260905224408 | 21 | 50 | 6.4 | 6.4 | 0.00 | 0.00 | 0.00 | 93 | 1016.0 |
| 20260905223905 | 21 | 50 | 6.4 | 6.4 | 0.00 | 0.00 | 0.00 | 93 | 1016.0 |
| 20260905223403 | 21 | 50 | 6.4 | 6.4 | 0.00 | 0.00 | 0.00 | 91 | 1016.0 |
| 20260905222902 | 21 | 50 | 6.4 | 6.4 | 0.00 | 0.00 | 0.00 | 91 | 1016.0 |
| 20260905222401 | 21 | 50 | 6.4 | 6.4 | 0.00 | 0.00 | 0.00 | 91 | 1016.0 |
| 20260905221900 | 21 | 50 | 6.4 | 6.4 | 0.00 | 0.00 | 0.00 | 91 | 1016.0 |
| 20260905221359 | 21 | 50 | 6.4 | 6.4 | 0.00 | 0.00 | 0.00 | 91 | 1016.0 |
| 20260905220857 | 22 | 40 | 9.7 | 9.7 | 0.00 | 0.00 | 0.00 | 92 | 1016.0 |
| 20260905220355 | 22 | 40 | 9.7 | 9.7 | 0.00 | 0.00 | 0.00 | 92 | 1016.0 |
| 20260905215851 | 22 | 40 | 9.7 | 9.7 | 0.00 | 0.00 | 0.00 | 92 | 1016.0 |
| 20260905215348 | 22 | 40 | 9.7 | 9.7 | 0.00 | 0.00 | 0.00 | 92 | 1016.0 |
| 20260905214844 | 22 | 40 | 9.7 | 9.7 | 0.00 | 0.00 | 0.00 | 92 | 1016.0 |
| 20260905214342 | 22 | 40 | 9.7 | 9.7 | 0.00 | 0.00 | 0.00 | 92 | 1016.0 |
| 20260905213839 | 22 | 80 | 6.4 | 6.4 | 0.00 | 0.00 | 0.00 | 92 | 1016.0 |
| 20260905213338 | 22 | 80 | 6.4 | 6.4 | 0.00 | 0.00 | 0.00 | 92 | 1016.0 |
| 20260905212835 | 22 | 80 | 6.4 | 6.4 | 0.00 | 0.00 | 0.00 | 92 | 1016.0 |
| 20260905212333 | 22 | 80 | 6.4 | 6.4 | 0.00 | 0.00 | 0.00 | 92 | 1016.0 |
| 20260905211830 | 22 | 80 | 6.4 | 6.4 | 0.00 | 0.00 | 0.00 | 92 | 1016.0 |
| 20260905211328 | 22 | 80 | 6.4 | 6.4 | 0.00 | 0.00 | 0.00 | 92 | 1016.0 |
| 20260905210825 | 22 | 50 | 16.1 | 16.1 | 0.00 | 0.00 | 0.00 | 90 | 1016.0 |
| 20260905210324 | 22 | 50 | 16.1 | 16.1 | 0.00 | 0.00 | 0.00 | 90 | 1016.0 |
| 20260905205821 | 22 | 50 | 16.1 | 16.1 | 0.00 | 0.00 | 0.00 | 90 | 1016.0 |
| 20260905205320 | 22 | 50 | 16.1 | 16.1 | 0.00 | 0.00 | 0.00 | 90 | 1016.0 |
| 20260905204819 | 22 | 50 | 16.1 | 16.1 | 0.00 | 0.00 | 0.00 | 90 | 1016.0 |
| 20260905204317 | 22 | 50 | 16.1 | 16.1 | 0.00 | 0.00 | 0.00 | 90 | 1016.0 |
| 20260905203815 | 22 | 50 | 16.1 | 16.1 | 0.00 | 0.00 | 0.00 | 90 | 1016.0 |
| 20260905203313 | 22 | 60 | 16.1 | 16.1 | 0.00 | 0.00 | 0.00 | 90 | 1016.0 |
| 20260905202812 | 22 | 60 | 16.1 | 16.1 | 0.00 | 0.00 | 0.00 | 90 | 1016.0 |
| 20260905202310 | 22 | 60 | 16.1 | 16.1 | 0.00 | 0.00 | 0.00 | 90 | 1016.0 |
| 20260905201808 | 22 | 60 | 16.1 | 16.1 | 0.00 | 0.00 | 0.00 | 90 | 1016.0 |
| 20260905201304 | 22 | 60 | 16.1 | 16.1 | 0.00 | 0.00 | 0.00 | 89 | 1016.0 |
| 20260905200803 | 22 | 60 | 16.1 | 16.1 | 0.00 | 0.00 | 0.00 | 89 | 1016.0 |
| 20260905200300 | 22 | 60 | 16.1 | 16.1 | 0.00 | 0.00 | 0.00 | 89 | 1016.0 |
| 20260905195758 | 22 | 60 | 16.1 | 16.1 | 0.00 | 0.00 | 0.00 | 89 | 1016.0 |
| 20260905195256 | 22 | 60 | 16.1 | 16.1 | 0.00 | 0.00 | 0.00 | 89 | 1016.0 |
| 20260905194754 | 22 | 60 | 16.1 | 16.1 | 0.00 | 0.00 | 0.00 | 89 | 1016.0 |
| 20260905194252 | 22 | 60 | 16.1 | 16.1 | 0.00 | 0.00 | 0.00 | 89 | 1016.0 |
| 20260905193750 | 23 | 50 | 14.5 | 14.5 | 0.00 | 0.00 | 0.00 | 89 | 1016.0 |
| 20260905193249 | 23 | 50 | 14.5 | 14.5 | 0.00 | 0.00 | 0.00 | 89 | 1016.0 |
| 20260905192748 | 23 | 50 | 14.5 | 14.5 | 0.00 | 0.00 | 0.00 | 89 | 1016.0 |
| 20260905192245 | 23 | 50 | 14.5 | 14.5 | 0.00 | 0.00 | 0.00 | 89 | 1016.0 |
| 20260905191743 | 23 | 50 | 14.5 | 14.5 | 0.00 | 0.00 | 0.00 | 89 | 1016.0 |
| 20260905191242 | 23 | 50 | 14.5 | 14.5 | 0.00 | 0.00 | 0.00 | 89 | 1016.0 |
| 20260905190740 | 23 | 50 | 14.5 | 14.5 | 0.00 | 0.00 | 0.00 | 89 | 1016.0 |
| 20260905190238 | 23 | 50 | 16.1 | 16.1 | 0.00 | 0.00 | 0.00 | 90 | 1016.0 |
| 20260905185736 | 23 | 50 | 16.1 | 16.1 | 0.00 | 0.00 | 0.00 | 90 | 1016.0 |
| 20260905185229 | 23 | 50 | 16.1 | 16.1 | 0.00 | 0.00 | 0.00 | 90 | 1016.0 |
| 20260905184726 | 23 | 50 | 16.1 | 16.1 | 0.00 | 0.00 | 0.00 | 90 | 1016.0 |
| 20260905184225 | 23 | 50 | 16.1 | 16.1 | 0.00 | 0.00 | 0.00 | 90 | 1016.0 |
| 20260905183725 | 23 | 50 | 16.1 | 16.1 | 0.00 | 0.00 | 0.00 | 90 | 1016.0 |
| 20260905183221 | 23 | 50 | 16.1 | 16.1 | 0.00 | 0.00 | 0.00 | 90 | 1016.0 |
| 20260905182719 | 23 | 50 | 16.1 | 16.1 | 0.00 | 0.00 | 0.00 | 90 | 1016.0 |
| 20260905182218 | 23 | 50 | 16.1 | 16.1 | 0.00 | 0.00 | 0.00 | 90 | 1016.0 |
| 20260905181716 | 24 | 50 | 16.1 | 16.1 | 0.00 | 0.00 | 0.00 | 92 | 1016.0 |
| 20260905181216 | 24 | 50 | 16.1 | 16.1 | 0.00 | 0.00 | 0.00 | 92 | 1016.0 |
| 20260905180714 | 24 | 50 | 16.1 | 16.1 | 0.00 | 0.00 | 0.00 | 92 | 1016.0 |
| 20260905180209 | 24 | 40 | 19.3 | 19.3 | 0.00 | 0.00 | 0.00 | 87 | 1016.0 |
| 20260905175707 | 24 | 40 | 19.3 | 19.3 | 0.00 | 0.00 | 0.00 | 87 | 1016.0 |
| 20260905175206 | 24 | 40 | 19.3 | 19.3 | 0.00 | 0.00 | 0.00 | 90 | 1016.0 |
| 20260905174704 | 24 | 40 | 19.3 | 19.3 | 0.00 | 0.00 | 0.00 | 90 | 1016.0 |
| 20260905174157 | 25 | 50 | 17.7 | 17.7 | 0.00 | 0.00 | 0.00 | 96 | 1016.0 |
| 20260905173656 | 25 | 50 | 17.7 | 17.7 | 0.00 | 0.00 | 0.00 | 96 | 1016.0 |
| 20260905173154 | 25 | 50 | 17.7 | 17.7 | 0.00 | 0.00 | 0.00 | 96 | 1016.0 |
| 20260905172651 | 25 | 50 | 17.7 | 17.7 | 0.00 | 0.00 | 0.00 | 96 | 1016.0 |
| 20260905172150 | 26 | 50 | 17.7 | 17.7 | 0.00 | 0.00 | 0.00 | 96 | 1016.0 |
| 20260905171648 | 26 | 50 | 17.7 | 17.7 | 0.00 | 0.00 | 0.00 | 96 | 1016.0 |
| 20260905171147 | 26 | 50 | 20.9 | 20.9 | 0.00 | 0.00 | 0.00 | 95 | 1016.0 |
| 20260905170645 | 26 | 50 | 20.9 | 20.9 | 0.00 | 0.00 | 0.00 | 95 | 1016.0 |
| 20260905170144 | 26 | 50 | 20.9 | 20.9 | 0.00 | 0.00 | 0.00 | 95 | 1016.0 |
| 20260905165642 | 26 | 50 | 20.9 | 20.9 | 0.00 | 0.00 | 0.00 | 95 | 1016.0 |
| 20260905165141 | 26 | 50 | 20.9 | 20.9 | 0.00 | 0.00 | 0.00 | 88 | 1016.0 |
| 20260905164639 | 26 | 50 | 20.9 | 20.9 | 0.00 | 0.00 | 0.00 | 88 | 1016.0 |
| 20260905164138 | 26 | 50 | 20.9 | 20.9 | 0.00 | 0.00 | 0.00 | 88 | 1016.0 |
| 20260905163635 | 26 | 50 | 20.9 | 20.9 | 0.00 | 0.00 | 0.00 | 95 | 1016.0 |
| 20260905163133 | 26 | 50 | 20.9 | 20.9 | 0.00 | 0.00 | 0.00 | 95 | 1016.0 |
| 20260905162632 | 27 | 50 | 20.9 | 20.9 | 0.00 | 0.00 | 0.00 | 93 | 1016.0 |
| 20260905162131 | 27 | 50 | 20.9 | 20.9 | 0.00 | 0.00 | 0.00 | 93 | 1016.0 |
| 20260905161628 | 27 | 50 | 20.9 | 20.9 | 0.00 | 0.00 | 0.00 | 90 | 1016.0 |
| 20260905161126 | 27 | 50 | 20.9 | 20.9 | 0.00 | 0.00 | 0.00 | 90 | 1016.0 |
| 20260905160624 | 27 | 50 | 20.9 | 20.9 | 0.00 | 0.00 | 0.00 | 90 | 1016.0 |
| 20260905160123 | 27 | 60 | 19.3 | 19.3 | 0.00 | 0.00 | 0.00 | 90 | 1016.0 |
| 20260905155621 | 27 | 60 | 19.3 | 19.3 | 0.00 | 0.00 | 0.00 | 90 | 1016.0 |
| 20260905155120 | 27 | 60 | 19.3 | 19.3 | 0.00 | 0.00 | 0.00 | 69 | 1016.0 |
| 20260905154618 | 27 | 60 | 19.3 | 19.3 | 0.00 | 0.00 | 0.00 | 69 | 1016.0 |
| 20260905154116 | 27 | 60 | 19.3 | 19.3 | 0.00 | 0.00 | 0.00 | 86 | 1016.0 |
| 20260905153614 | 27 | 60 | 19.3 | 19.3 | 0.00 | 0.00 | 0.00 | 86 | 1016.0 |
| 20260905153111 | 27 | 60 | 20.9 | 20.9 | 0.00 | 0.00 | 0.00 | 84 | 1016.0 |
| 20260905152610 | 27 | 60 | 20.9 | 20.9 | 0.00 | 0.00 | 0.00 | 84 | 1016.0 |
| 20260905152108 | 28 | 60 | 20.9 | 20.9 | 0.00 | 0.00 | 0.00 | 85 | 1016.0 |
| 20260905151606 | 28 | 60 | 20.9 | 20.9 | 0.00 | 0.00 | 0.00 | 85 | 1016.0 |
| 20260905151104 | 28 | 60 | 25.7 | 25.7 | 0.00 | 0.00 | 0.00 | 72 | 1016.0 |
| 20260905150602 | 28 | 60 | 25.7 | 25.7 | 0.00 | 0.00 | 0.00 | 72 | 1016.0 |
| 20260905150100 | 28 | 60 | 25.7 | 25.7 | 0.00 | 0.00 | 0.00 | 67 | 1016.0 |
| 20260905145559 | 29 | 60 | 25.7 | 25.7 | 0.00 | 0.00 | 0.00 | 34 | 1016.0 |
| 20260905145057 | 29 | 60 | 25.7 | 25.7 | 0.00 | 0.00 | 0.00 | 34 | 1016.0 |
| 20260905144556 | 29 | 60 | 25.7 | 25.7 | 0.00 | 0.00 | 0.00 | 39 | 1016.0 |
| 20260905144055 | 29 | 60 | 25.7 | 25.7 | 0.00 | 0.00 | 0.00 | 49 | 1016.0 |
| 20260905143553 | 29 | 40 | 20.9 | 20.9 | 0.00 | 0.00 | 0.00 | 72 | 1016.0 |
| 20260905143050 | 29 | 40 | 20.9 | 20.9 | 0.00 | 0.00 | 0.00 | 72 | 1016.0 |
| 20260905142548 | 29 | 40 | 20.9 | 20.9 | 0.00 | 0.00 | 0.00 | 72 | 1016.0 |
| 20260905142046 | 29 | 40 | 20.9 | 20.9 | 0.00 | 0.00 | 0.00 | 72 | 1016.0 |
| 20260905141544 | 29 | 40 | 20.9 | 20.9 | 0.00 | 0.00 | 0.00 | 73 | 1016.0 |
| 20260905141039 | 29 | 40 | 20.9 | 20.9 | 0.00 | 0.00 | 0.00 | 73 | 1016.0 |
| 20260905140537 | 29 | 50 | 20.9 | 20.9 | 0.00 | 0.00 | 0.00 | 71 | 1016.0 |
| 20260905140036 | 29 | 50 | 20.9 | 20.9 | 0.00 | 0.00 | 0.00 | 71 | 1016.0 |
| 20260905135535 | 29 | 50 | 20.9 | 20.9 | 0.00 | 0.00 | 0.00 | 71 | 1016.0 |
| 20260905135033 | 29 | 50 | 20.9 | 20.9 | 0.00 | 0.00 | 0.00 | 71 | 1016.0 |
| 20260905134532 | 29 | 50 | 20.9 | 20.9 | 0.00 | 0.00 | 0.00 | 70 | 1016.0 |
| 20260905134030 | 29 | 50 | 20.9 | 20.9 | 0.00 | 0.00 | 0.00 | 70 | 1016.0 |
| 20260905133529 | 29 | 50 | 20.9 | 20.9 | 0.00 | 0.00 | 0.00 | 70 | 1016.0 |
| 20260905133028 | 29 | 30 | 20.9 | 20.9 | 0.00 | 0.00 | 0.00 | 67 | 1016.0 |
| 20260905132527 | 29 | 30 | 20.9 | 20.9 | 0.00 | 0.00 | 0.00 | 67 | 1016.0 |
| 20260905132026 | 29 | 30 | 20.9 | 20.9 | 0.00 | 0.00 | 0.00 | 69 | 1016.0 |
| 20260905131524 | 29 | 30 | 20.9 | 20.9 | 0.00 | 0.00 | 0.00 | 69 | 1016.0 |
| 20260905131022 | 29 | 30 | 20.9 | 20.9 | 0.00 | 0.00 | 0.00 | 69 | 1016.0 |
| 20260905130520 | 29 | 60 | 20.9 | 20.9 | 0.00 | 0.00 | 0.00 | 71 | 1016.0 |
| 20260905130017 | 29 | 60 | 20.9 | 20.9 | 0.00 | 0.00 | 0.00 | 71 | 1016.0 |
| 20260905125515 | 29 | 60 | 20.9 | 20.9 | 0.00 | 0.00 | 0.00 | 71 | 1016.0 |
| 20260905125012 | 29 | 60 | 20.9 | 20.9 | 0.00 | 0.00 | 0.00 | 71 | 1016.0 |
| 20260905124510 | 29 | 60 | 20.9 | 20.9 | 0.00 | 0.00 | 0.00 | 70 | 1016.0 |
| 20260905124008 | 29 | 60 | 20.9 | 20.9 | 0.00 | 0.00 | 0.00 | 70 | 1016.0 |
| 20260905123506 | 30 | 50 | 20.9 | 20.9 | 0.00 | 0.00 | 0.00 | 71 | 1016.0 |
| 20260905123006 | 30 | 50 | 20.9 | 20.9 | 0.00 | 0.00 | 0.00 | 71 | 1016.0 |
| 20260905122504 | 30 | 50 | 20.9 | 20.9 | 0.00 | 0.00 | 0.00 | 71 | 1017.0 |
| 20260905122003 | 30 | 50 | 20.9 | 20.9 | 0.00 | 0.00 | 0.00 | 71 | 1017.0 |
| 20260905121501 | 30 | 50 | 20.9 | 20.9 | 0.00 | 0.00 | 0.00 | 70 | 1017.0 |
| 20260905120958 | 30 | 50 | 20.9 | 20.9 | 0.00 | 0.00 | 0.00 | 70 | 1017.0 |
| 20260905120457 | 30 | 50 | 22.5 | 22.5 | 0.00 | 0.00 | 0.00 | 70 | 1016.0 |
| 20260905115956 | 30 | 50 | 22.5 | 22.5 | 0.00 | 0.00 | 0.00 | 67 | 1016.0 |
| 20260905115454 | 30 | 50 | 22.5 | 22.5 | 0.00 | 0.00 | 0.00 | 67 | 1016.0 |
| 20260905114953 | 30 | 50 | 22.5 | 22.5 | 0.00 | 0.00 | 0.00 | 67 | 1016.0 |
| 20260905114452 | 30 | 50 | 22.5 | 22.5 | 0.00 | 0.00 | 0.00 | 67 | 1016.0 |
| 20260905113950 | 30 | 50 | 22.5 | 22.5 | 0.00 | 0.00 | 0.00 | 68 | 1016.0 |
| 20260905113448 | 29 | 230 | 9.7 | 9.7 | 0.00 | 0.00 | 0.00 | 78 | 1017.0 |
| 20260905112946 | 29 | 230 | 9.7 | 9.7 | 0.00 | 0.00 | 0.00 | 78 | 1017.0 |
| 20260905112444 | 29 | 230 | 9.7 | 9.7 | 0.00 | 0.00 | 0.00 | 78 | 1017.0 |
| 20260905111942 | 28 | 230 | 9.7 | 9.7 | 0.00 | 0.00 | 0.00 | 78 | 1017.0 |
| 20260905111439 | 28 | 230 | 9.7 | 9.7 | 0.00 | 0.00 | 0.00 | 79 | 1017.0 |
| 20260905110937 | 28 | 230 | 9.7 | 9.7 | 0.00 | 0.00 | 0.00 | 79 | 1017.0 |
| 20260905110436 | 29 | 150 | 9.7 | 9.7 | 0.00 | 0.00 | 0.00 | 81 | 1017.0 |
| 20260905105934 | 29 | 150 | 9.7 | 9.7 | 0.00 | 0.00 | 0.00 | 89 | 1017.0 |
| 20260905105433 | 29 | 150 | 9.7 | 9.7 | 0.00 | 0.00 | 0.00 | 89 | 1017.0 |
| 20260905104930 | 29 | 150 | 9.7 | 9.7 | 0.00 | 0.00 | 0.00 | 88 | 1017.0 |
| 20260905104428 | 28 | 150 | 9.7 | 9.7 | 0.00 | 0.00 | 0.00 | 83 | 1017.0 |
| 20260905103927 | 28 | 150 | 9.7 | 9.7 | 0.00 | 0.00 | 0.00 | 83 | 1017.0 |
| 20260905103423 | 26 | 150 | 9.7 | 9.7 | 0.00 | 0.00 | 0.00 | 61 | 1017.0 |
| 20260905102922 | 26 | 150 | 9.7 | 9.7 | 0.00 | 0.00 | 0.00 | 61 | 1017.0 |
| 20260905102421 | 26 | 150 | 9.7 | 9.7 | 0.00 | 0.00 | 0.00 | 61 | 1017.0 |
| 20260905101920 | 26 | 150 | 9.7 | 9.7 | 0.00 | 0.00 | 0.00 | 61 | 1017.0 |
| 20260905101417 | 26 | 170 | 12.9 | 12.9 | 0.00 | 0.00 | 0.00 | 69 | 1017.0 |
| 20260905100915 | 26 | 170 | 12.9 | 12.9 | 0.00 | 0.00 | 0.00 | 69 | 1017.0 |
| 20260905100414 | 26 | 170 | 12.9 | 12.9 | 0.00 | 0.00 | 0.00 | 69 | 1017.0 |
| 20260905095911 | 25 | 170 | 12.9 | 12.9 | 0.00 | 0.00 | 0.00 | 69 | 1017.0 |
| 20260905095409 | 25 | 170 | 12.9 | 12.9 | 0.00 | 0.00 | 0.00 | 69 | 1017.0 |
| 20260905094907 | 25 | 170 | 12.9 | 12.9 | 0.00 | 0.00 | 0.00 | 69 | 1017.0 |
| 20260905094403 | 25 | 170 | 12.9 | 12.9 | 0.00 | 0.00 | 0.00 | 69 | 1017.0 |
| 20260905093902 | 24 | 170 | 9.7 | 9.7 | 0.00 | 0.00 | 0.00 | 73 | 1017.0 |
| 20260905093359 | 24 | 170 | 9.7 | 9.7 | 0.00 | 0.00 | 0.00 | 73 | 1017.0 |
| 20260905092857 | 24 | 170 | 9.7 | 9.7 | 0.00 | 0.00 | 0.00 | 74 | 1018.0 |
| 20260905092356 | 24 | 170 | 9.7 | 9.7 | 0.00 | 0.00 | 0.00 | 74 | 1018.0 |
| 20260905091854 | 24 | 170 | 9.7 | 9.7 | 0.00 | 0.00 | 0.00 | 74 | 1018.0 |
| 20260905091352 | 24 | 170 | 9.7 | 9.7 | 0.00 | 0.00 | 0.00 | 76 | 1018.0 |
| 20260905090851 | 24 | 170 | 9.7 | 9.7 | 0.00 | 0.00 | 0.00 | 76 | 1018.0 |
| 20260905090350 | 24 | 140 | 12.9 | 12.9 | 0.00 | 0.00 | 0.00 | 80 | 1018.0 |
| 20260905085848 | 25 | 140 | 12.9 | 12.9 | 0.00 | 0.00 | 0.00 | 89 | 1018.0 |
| 20260905085347 | 25 | 140 | 12.9 | 12.9 | 0.00 | 0.00 | 0.00 | 89 | 1018.0 |
| 20260905084844 | 25 | 140 | 12.9 | 12.9 | 0.00 | 0.00 | 0.00 | 90 | 1018.0 |
| 20260905084342 | 25 | 150 | 12.9 | 12.9 | 0.00 | 0.00 | 0.00 | 91 | 1018.0 |
| 20260905083839 | 25 | 150 | 12.9 | 12.9 | 0.00 | 0.00 | 0.00 | 91 | 1018.0 |